Time;durP1;ratioP1;P1;durP2;ratioP2;P2;SDS_P1;SDS_P2;PMS_P1;PMS_P2;Temp;Humidity;BMP_temperature;BMP_pressure;BME280_temperature;BME280_humidity;BME280_pressure;Samples;Min_cycle;Max_cycle;Signal;HPM_P1;HPM_P2
2022/07/31 00:02:19;;;;;;;13.68;5.78;;;;;;;19.91;61.51;101639.97;5017873;28;20041;-89
2022/07/31 00:04:45;;;;;;;7.65;5.55;;;;;;;19.94;62.08;101644.34;5033640;28;20063;-89
2022/07/31 00:07:11;;;;;;;13.70;5.80;;;;;;;19.96;61.22;101646.00;5033921;28;20044;-88
2022/07/31 00:09:37;;;;;;;10.18;5.50;;;;;;;19.86;61.97;101628.56;5033742;28;20037;-88
2022/07/31 00:12:03;;;;;;;8.77;5.35;;;;;;;19.96;62.55;101651.38;5048839;28;20021;-88
2022/07/31 00:14:29;;;;;;;9.32;5.28;;;;;;;19.96;61.70;101647.81;5013644;28;20087;-88
2022/07/31 00:16:56;;;;;;;9.27;5.72;;;;;;;19.95;62.49;101635.31;5029693;28;20029;-88
2022/07/31 00:19:22;;;;;;;12.82;5.97;;;;;;;19.94;61.89;101642.50;5020927;28;20163;-88
2022/07/31 00:21:47;;;;;;;9.57;5.03;;;;;;;19.93;61.36;101635.41;5039393;28;20129;-88
2022/07/31 00:24:13;;;;;;;10.65;4.93;;;;;;;19.97;60.90;101630.72;5021822;28;20057;-88
2022/07/31 00:26:39;;;;;;;11.00;5.80;;;;;;;19.98;60.31;101633.34;5033431;28;20041;-88
2022/07/31 00:29:05;;;;;;;8.77;5.25;;;;;;;19.92;61.13;101624.72;5013790;28;20038;-87
2022/07/31 00:31:32;;;;;;;13.63;5.20;;;;;;;19.93;60.82;101629.13;5040220;28;20104;-88
2022/07/31 00:33:57;;;;;;;16.50;5.13;;;;;;;19.93;60.22;101634.50;5053378;28;20056;-88
2022/07/31 00:36:23;;;;;;;12.05;5.10;;;;;;;19.93;60.18;101640.78;4998938;28;20051;-88
2022/07/31 00:38:49;;;;;;;11.68;5.50;;;;;;;19.95;60.33;101640.69;5026928;28;20041;-88
2022/07/31 00:41:15;;;;;;;8.52;5.18;;;;;;;19.94;60.25;101647.88;5020314;28;20092;-88
2022/07/31 00:43:40;;;;;;;6.97;4.90;;;;;;;19.92;60.32;101640.84;5037144;28;20041;-88
2022/07/31 00:46:06;;;;;;;7.82;5.05;;;;;;;19.86;60.43;101627.72;5013411;28;20116;-88
2022/07/31 00:48:31;;;;;;;9.57;5.20;;;;;;;19.87;59.65;101618.69;5022670;28;20507;-88
2022/07/31 00:50:57;;;;;;;10.63;4.82;;;;;;;19.83;59.37;101620.66;5018957;28;20033;-88
2022/07/31 00:53:23;;;;;;;10.95;4.70;;;;;;;19.80;59.57;101618.09;5019028;28;20038;-87
2022/07/31 00:55:48;;;;;;;11.75;4.82;;;;;;;19.86;59.47;101630.41;5012106;28;20381;-88
2022/07/31 00:58:14;;;;;;;11.02;4.30;;;;;;;19.84;58.38;101617.03;5003583;28;20029;-87
2022/07/31 01:00:39;;;;;;;14.45;4.90;;;;;;;19.83;58.53;101607.22;4996656;28;20124;-88
2022/07/31 01:03:05;;;;;;;12.07;4.45;;;;;;;19.85;58.91;101616.06;5015903;28;20092;-87
2022/07/31 01:05:30;;;;;;;8.70;4.32;;;;;;;19.79;59.41;101613.69;5021725;28;20024;-88
2022/07/31 01:07:56;;;;;;;9.68;4.13;;;;;;;19.80;59.46;101609.19;5052791;28;20029;-88
2022/07/31 01:10:42;;;;;;;6.75;3.80;;;;;;;19.80;59.04;101603.81;5005573;28;20064;-88
2022/07/31 01:13:19;;;;;;;11.32;4.20;;;;;;;19.70;58.76;101601.56;5052719;28;20036;-88
2022/07/31 01:15:46;;;;;;;9.93;3.92;;;;;;;19.71;59.41;101618.56;5030804;28;20026;-88
2022/07/31 01:18:15;;;;;;;13.38;4.18;;;;;;;19.65;59.22;101617.00;5032974;28;20075;-88
2022/07/31 01:20:43;;;;;;;9.93;3.90;;;;;;;19.65;58.18;101611.63;5033467;28;20048;-88
2022/07/31 01:23:20;;;;;;;10.25;4.47;;;;;;;19.65;59.28;101608.06;5023216;28;20034;-88
2022/07/31 01:27:04;;;;;;;8.32;4.20;;;;;;;19.71;59.11;101615.88;5026006;28;20064;-87
2022/07/31 01:29:36;;;;;;;7.45;4.47;;;;;;;19.61;59.32;101603.78;4977866;28;20514;-89
2022/07/31 01:32:08;;;;;;;9.80;4.75;;;;;;;19.59;60.12;101608.38;5035713;28;20036;-88
2022/07/31 01:34:47;;;;;;;10.45;4.25;;;;;;;19.55;59.36;101613.88;5002015;28;20459;-88
2022/07/31 01:37:45;;;;;;;10.27;4.57;;;;;;;19.49;60.08;101618.69;5032806;28;20048;-88
2022/07/31 01:40:15;;;;;;;8.75;4.60;;;;;;;19.44;60.70;101616.19;5013233;28;20128;-88
2022/07/31 01:42:50;;;;;;;10.40;5.03;;;;;;;19.48;59.74;101614.22;5020209;28;20037;-89
2022/07/31 01:45:19;;;;;;;10.30;4.55;;;;;;;19.43;60.69;101619.81;5033066;28;20036;-89
2022/07/31 01:47:47;;;;;;;11.57;4.47;;;;;;;19.34;60.52;101604.16;5015253;28;20068;-89
2022/07/31 01:50:13;;;;;;;8.27;4.20;;;;;;;19.32;60.34;101609.56;5031384;28;20120;-88
2022/07/31 01:52:42;;;;;;;8.63;4.93;;;;;;;19.34;60.57;101612.22;5031569;28;20435;-89
2022/07/31 01:55:11;;;;;;;7.20;4.18;;;;;;;19.31;60.92;101612.31;4989131;28;20039;-88
2022/07/31 01:57:39;;;;;;;9.77;4.40;;;;;;;19.27;60.60;101611.59;5027857;28;20389;-88
2022/07/31 02:00:07;;;;;;;8.48;4.10;;;;;;;19.23;60.73;101619.88;5015219;28;20040;-88
2022/07/31 02:02:42;;;;;;;11.23;4.43;;;;;;;19.16;61.05;101616.59;5005535;28;20397;-88
2022/07/31 02:05:10;;;;;;;9.60;4.70;;;;;;;19.15;60.58;101614.84;5035170;28;20029;-88
2022/07/31 02:07:39;;;;;;;9.38;4.13;;;;;;;19.10;60.78;101614.19;5052277;28;20029;-88
2022/07/31 02:10:08;;;;;;;10.45;4.57;;;;;;;19.02;60.76;101609.16;5032067;28;20025;-88
2022/07/31 02:12:36;;;;;;;9.98;4.22;;;;;;;19.02;61.56;101606.50;5031817;28;20381;-88
2022/07/31 02:15:06;;;;;;;9.20;4.40;;;;;;;18.97;61.67;101611.19;5015209;28;20499;-89
2022/07/31 02:17:33;;;;;;;13.48;5.32;;;;;;;18.96;60.69;101605.88;5040449;28;20060;-88
2022/07/31 02:20:23;;;;;;;9.82;4.63;;;;;;;18.93;61.29;101600.66;5047863;28;20033;-87
2022/07/31 02:22:52;;;;;;;7.03;4.43;;;;;;;18.90;61.95;101601.66;5000158;28;20132;-88
2022/07/31 02:25:18;;;;;;;13.40;4.32;;;;;;;18.88;61.58;101601.72;5004651;28;20064;-89
2022/07/31 02:27:45;;;;;;;8.57;4.75;;;;;;;18.86;61.87;101603.59;5018360;28;20037;-88
2022/07/31 02:30:12;;;;;;;8.23;4.75;;;;;;;18.81;62.20;101600.25;5030052;28;20056;-89
2022/07/31 02:32:39;;;;;;;11.38;4.78;;;;;;;18.81;62.69;101607.44;5024906;28;20026;-88
2022/07/31 02:35:07;;;;;;;10.05;5.30;;;;;;;18.72;63.16;101611.38;5009039;28;20052;-88
2022/07/31 02:37:36;;;;;;;7.78;4.95;;;;;;;18.69;62.09;101611.47;5012963;28;20030;-88
2022/07/31 02:40:03;;;;;;;8.68;5.55;;;;;;;18.68;63.30;101613.31;5043702;28;20033;-89
2022/07/31 02:42:30;;;;;;;19.65;5.68;;;;;;;18.73;63.72;101615.78;5018666;28;20029;-88
2022/07/31 02:44:57;;;;;;;14.90;5.50;;;;;;;18.64;64.88;101611.72;5044652;28;20038;-88
2022/07/31 02:47:25;;;;;;;8.98;5.80;;;;;;;18.62;63.69;101610.00;5015743;28;20480;-88
2022/07/31 02:49:54;;;;;;;11.30;5.63;;;;;;;18.58;65.42;101603.91;5030209;28;20030;-88
2022/07/31 02:52:21;;;;;;;15.55;5.70;;;;;;;18.56;64.13;101603.09;4994279;28;20094;-86
2022/07/31 02:54:49;;;;;;;10.88;5.40;;;;;;;18.61;64.57;101597.53;5004768;28;20036;-88
2022/07/31 02:57:16;;;;;;;9.85;5.60;;;;;;;18.59;65.73;101586.00;5051117;28;20032;-88
2022/07/31 02:59:42;;;;;;;12.30;5.82;;;;;;;18.48;66.05;101584.66;4986788;28;20034;-89
2022/07/31 03:02:09;;;;;;;8.35;6.00;;;;;;;18.50;65.46;101589.97;4994265;28;20044;-88
2022/07/31 03:04:40;;;;;;;;;;;;;;;18.58;63.54;101590.50;5039590;28;20071;-88
2022/07/31 03:07:05;;;;;;;14.95;6.93;;;;;;;18.41;67.97;101601.94;5055101;28;19956;-88
2022/07/31 03:09:32;;;;;;;10.18;6.05;;;;;;;18.41;66.97;101593.91;5022130;28;20032;-88
2022/07/31 03:12:24;;;;;;;10.25;6.18;;;;;;;18.38;66.80;101580.63;5056050;28;20457;-89
2022/07/31 03:14:53;;;;;;;13.15;6.85;;;;;;;18.36;68.46;101577.13;5023801;28;20193;-88
2022/07/31 03:17:19;;;;;;;15.40;6.65;;;;;;;18.34;69.17;101584.38;5018200;28;20040;-88
2022/07/31 03:19:46;;;;;;;11.90;6.40;;;;;;;18.34;68.60;101581.69;5018476;28;20061;-88
2022/07/31 03:22:12;;;;;;;11.65;6.32;;;;;;;18.30;68.69;101572.06;5032055;28;20044;-88
2022/07/31 03:24:38;;;;;;;11.07;7.05;;;;;;;18.33;69.56;101573.72;5001774;28;20069;-89
2022/07/31 03:27:03;;;;;;;11.43;6.57;;;;;;;18.36;69.07;101574.47;5046766;28;20436;-89
2022/07/31 03:29:39;;;;;;;14.48;6.40;;;;;;;18.35;68.44;101577.22;5001855;28;20033;-88
2022/07/31 03:32:05;;;;;;;10.82;7.55;;;;;;;18.31;68.86;101583.66;5031954;28;20507;-88
2022/07/31 03:34:32;;;;;;;10.98;6.90;;;;;;;18.28;69.20;101565.88;5018586;28;20420;-88
2022/07/31 03:36:57;;;;;;;14.00;7.00;;;;;;;18.27;69.35;101580.22;5031864;28;20048;-88
2022/07/31 03:39:24;;;;;;;11.57;6.80;;;;;;;18.24;69.30;101570.47;5024513;28;20079;-88
2022/07/31 03:41:53;;;;;;;8.15;6.07;;;;;;;18.21;68.50;101559.91;5005769;28;20046;-89
2022/07/31 03:44:19;;;;;;;11.27;6.63;;;;;;;18.19;69.75;101563.56;4999565;28;20046;-88
2022/07/31 03:46:46;;;;;;;12.45;6.20;;;;;;;18.19;68.02;101564.44;5018113;28;20108;-88
2022/07/31 03:49:12;;;;;;;9.80;6.38;;;;;;;18.26;68.76;101578.47;5001565;28;20505;-88
2022/07/31 03:51:38;;;;;;;12.55;6.18;;;;;;;18.21;68.39;101572.44;5023750;28;20111;-89
2022/07/31 03:54:04;;;;;;;10.80;6.07;;;;;;;18.13;69.68;101566.53;5026304;28;20057;-88
2022/07/31 03:56:49;;;;;;;11.10;6.63;;;;;;;18.15;69.15;101575.34;5033812;28;20024;-89
2022/07/31 03:59:18;;;;;;;16.17;7.53;;;;;;;18.09;70.29;101573.81;5018077;28;20033;-89
2022/07/31 04:01:44;;;;;;;15.43;7.28;;;;;;;18.04;70.36;101576.69;5052478;28;20382;-88
2022/07/31 04:04:16;;;;;;;18.25;8.18;;;;;;;18.04;70.62;101589.22;5054243;28;20039;-89
2022/07/31 04:07:11;;;;;;;13.82;8.05;;;;;;;17.99;71.11;101573.31;5017662;28;20041;-88
2022/07/31 04:09:37;;;;;;;20.63;8.55;;;;;;;17.94;71.36;101580.69;5007477;28;20396;-88
2022/07/31 04:12:04;;;;;;;16.63;8.93;;;;;;;17.95;71.44;101584.22;5039136;28;20075;-88
2022/07/31 04:14:30;;;;;;;14.10;8.40;;;;;;;17.87;70.76;101581.00;5025382;28;20528;-88
2022/07/31 04:16:56;;;;;;;14.82;8.45;;;;;;;17.85;72.50;101581.03;5004632;28;20032;-89
2022/07/31 04:19:23;;;;;;;17.05;8.68;;;;;;;17.84;71.58;101576.63;5011317;28;20129;-89
2022/07/31 04:21:49;;;;;;;15.32;8.82;;;;;;;17.88;71.94;101585.41;5016644;28;20032;-88
2022/07/31 04:24:17;;;;;;;12.00;9.35;;;;;;;17.89;71.31;101590.72;5029240;28;20552;-88
2022/07/31 04:27:08;;;;;;;16.80;9.35;;;;;;;17.88;71.66;101585.41;5000464;28;20061;-89
2022/07/31 04:29:40;;;;;;;13.27;9.30;;;;;;;17.88;70.91;101590.75;5005011;28;20029;-88
2022/07/31 04:32:05;;;;;;;19.17;10.30;;;;;;;17.89;72.19;101597.88;5047077;28;20028;-88
2022/07/31 04:34:36;;;;;;;16.92;10.07;;;;;;;17.85;72.15;101586.41;5042415;28;20036;-88
2022/07/31 04:37:03;;;;;;;19.75;10.20;;;;;;;17.85;71.90;101597.13;5021478;28;20037;-90
2022/07/31 04:39:28;;;;;;;16.00;9.98;;;;;;;17.81;72.27;101587.47;5024589;28;20040;-89
2022/07/31 04:41:55;;;;;;;16.35;9.10;;;;;;;17.81;72.38;101580.31;5020214;28;20499;-89
2022/07/31 04:44:21;;;;;;;17.35;9.75;;;;;;;17.86;71.44;101588.16;5001201;28;20049;-89
2022/07/31 04:47:03;;;;;;;19.15;9.63;;;;;;;17.87;72.12;101583.66;5003257;28;20037;-89
2022/07/31 04:49:32;;;;;;;18.30;9.43;;;;;;;17.84;71.50;101582.84;5007747;28;20062;-88
2022/07/31 04:51:59;;;;;;;20.75;9.45;;;;;;;17.88;71.83;101580.94;5026610;28;20025;-89
2022/07/31 04:54:25;;;;;;;14.40;9.00;;;;;;;17.91;71.32;101591.53;5024592;28;20036;-89
2022/07/31 04:56:51;;;;;;;17.88;9.00;;;;;;;17.91;72.14;101596.88;5041938;28;20021;-89
2022/07/31 04:59:21;;;;;;;17.23;8.90;;;;;;;17.90;72.58;101600.47;5023179;28;20049;-88
2022/07/31 05:01:48;;;;;;;18.02;9.35;;;;;;;17.91;71.83;101590.66;5017081;28;20073;-89
2022/07/31 05:04:18;;;;;;;13.10;8.45;;;;;;;17.87;72.35;101584.53;5017366;28;20056;-88
2022/07/31 05:06:49;;;;;;;15.88;9.00;;;;;;;17.78;73.10;101576.88;5003895;28;20102;-88
2022/07/31 05:09:17;;;;;;;15.73;8.93;;;;;;;17.82;74.39;101581.19;5026111;28;20057;-88
2022/07/31 05:11:44;;;;;;;15.15;8.20;;;;;;;17.81;74.92;101580.31;5035852;28;20088;-87
2022/07/31 05:14:12;;;;;;;12.10;8.00;;;;;;;17.83;73.96;101588.28;5043714;28;20025;-89
2022/07/31 05:16:38;;;;;;;13.57;7.65;;;;;;;17.74;73.01;101562.69;5015710;28;20563;-88
2022/07/31 05:19:05;;;;;;;13.35;8.05;;;;;;;17.75;75.30;101574.28;5026263;28;20038;-89
2022/07/31 05:21:49;;;;;;;16.00;8.32;;;;;;;17.75;75.39;101577.81;5031686;28;20423;-89
2022/07/31 05:24:33;;;;;;;15.45;7.55;;;;;;;17.73;74.88;101576.16;5008886;28;20049;-89
2022/07/31 05:27:04;;;;;;;14.85;6.72;;;;;;;17.70;75.27;101561.06;5032417;28;20041;-89
2022/07/31 05:29:31;;;;;;;13.48;7.75;;;;;;;17.73;75.99;101563.66;5032915;28;20112;-89
2022/07/31 05:31:56;;;;;;;10.48;7.25;;;;;;;17.75;76.43;101572.47;5032594;28;20060;-89
2022/07/31 05:34:22;;;;;;;10.30;7.13;;;;;;;17.68;76.34;101557.59;5016153;28;20486;-88
2022/07/31 05:36:49;;;;;;;11.88;7.75;;;;;;;17.67;77.38;101553.16;5016052;28;20136;-88
2022/07/31 05:39:16;;;;;;;8.18;6.32;;;;;;;17.71;76.55;101559.28;5016517;28;20029;-89
2022/07/31 05:42:00;;;;;;;12.65;7.05;;;;;;;17.68;77.34;101557.59;5035199;28;20060;-90
2022/07/31 05:44:34;;;;;;;10.05;5.95;;;;;;;17.70;77.40;101563.75;5019930;28;20025;-89
2022/07/31 05:47:00;;;;;;;10.38;7.07;;;;;;;17.67;76.92;101563.88;5006149;28;20171;-91
2022/07/31 05:49:27;;;;;;;9.60;6.78;;;;;;;17.76;77.91;101576.91;4991463;28;20040;-89
2022/07/31 05:51:55;;;;;;;11.27;5.72;;;;;;;17.73;78.01;101569.00;5009773;28;20105;-89
2022/07/31 05:54:26;;;;;;;9.88;6.07;;;;;;;17.68;77.07;101554.03;5003651;28;20038;-90
2022/07/31 05:57:11;;;;;;;14.13;6.20;;;;;;;17.75;77.95;101561.75;5014898;28;20042;-89
2022/07/31 05:59:41;;;;;;;8.88;6.35;;;;;;;17.80;77.49;101573.22;5032397;28;20029;-89
2022/07/31 06:02:06;;;;;;;11.55;6.03;;;;;;;17.79;77.89;101576.78;5019771;28;20038;-88
2022/07/31 06:04:48;;;;;;;11.45;5.95;;;;;;;17.80;78.65;101570.53;5029268;28;20032;-89
2022/07/31 06:07:13;;;;;;;8.50;5.72;;;;;;;17.84;78.82;101569.47;4996177;28;20034;-89
2022/07/31 06:09:40;;;;;;;7.28;4.97;;;;;;;17.79;78.58;101573.22;5006359;28;20028;-88
2022/07/31 06:12:06;;;;;;;9.23;5.60;;;;;;;17.82;78.85;101575.81;5026237;28;20030;-90
2022/07/31 06:14:31;;;;;;;10.70;5.78;;;;;;;17.87;78.87;101570.28;5002643;28;20037;-89
2022/07/31 06:17:29;;;;;;;9.82;5.53;;;;;;;17.88;78.98;101563.97;4987225;28;20041;-90
2022/07/31 06:19:55;;;;;;;9.60;5.45;;;;;;;17.92;78.06;101555.75;5015203;28;20030;-89
2022/07/31 06:22:22;;;;;;;10.20;5.10;;;;;;;17.97;79.03;101560.91;5008800;28;20084;-90
2022/07/31 06:24:47;;;;;;;9.43;5.40;;;;;;;18.00;79.44;101569.72;5011500;28;20093;-90
2022/07/31 06:27:13;;;;;;;13.10;4.70;;;;;;;17.98;77.90;101562.69;5010566;28;20069;-90
2022/07/31 06:29:38;;;;;;;7.45;4.38;;;;;;;18.11;78.46;101563.03;5005723;28;20030;-90
2022/07/31 06:32:04;;;;;;;10.02;4.75;;;;;;;18.21;78.40;101567.06;5014764;28;20025;-89
2022/07/31 06:34:30;;;;;;;8.07;4.45;;;;;;;18.25;78.11;101557.97;5002441;28;20034;-90
2022/07/31 06:36:57;;;;;;;11.27;4.80;;;;;;;18.18;78.61;101552.00;5033854;28;20029;-90
2022/07/31 06:39:23;;;;;;;6.93;4.50;;;;;;;18.18;79.37;101557.34;5025226;28;20029;-90
2022/07/31 06:42:03;;;;;;;7.60;4.53;;;;;;;18.29;78.99;101562.25;5014653;28;20069;-89
2022/07/31 06:44:31;;;;;;;7.53;4.93;;;;;;;18.31;78.71;101544.28;5010081;28;20493;-89
2022/07/31 06:47:23;;;;;;;7.18;4.72;;;;;;;18.41;79.19;101563.53;5001467;28;20052;-89
2022/07/31 06:50:02;;;;;;;8.63;5.20;;;;;;;18.40;78.65;101560.00;5032693;28;20030;-89
2022/07/31 06:52:33;;;;;;;9.73;5.28;;;;;;;18.40;78.95;101567.19;5021071;28;20496;-90
2022/07/31 06:55:00;;;;;;;6.70;4.15;;;;;;;18.34;77.24;101548.66;5040024;28;20148;-88
2022/07/31 06:57:26;;;;;;;12.23;5.43;;;;;;;18.42;78.67;101566.16;5021040;28;20037;-89
2022/07/31 06:59:51;;;;;;;7.68;5.32;;;;;;;18.41;79.54;101555.50;5038332;28;20025;-89
2022/07/31 07:02:17;;;;;;;10.68;5.32;;;;;;;18.44;78.66;101555.34;5044964;28;20040;-90
2022/07/31 07:04:43;;;;;;;8.00;5.25;;;;;;;18.53;79.10;101562.16;5025058;28;20033;-89
2022/07/31 07:07:13;;;;;;;7.85;5.35;;;;;;;18.55;79.24;101554.91;5028956;28;20028;-89
2022/07/31 07:09:39;;;;;;;7.10;5.47;;;;;;;18.62;78.46;101554.56;5033313;28;20460;-85
2022/07/31 07:12:08;;;;;;;12.15;5.80;;;;;;;18.66;78.73;101557.97;5034667;28;20120;-85
2022/07/31 07:14:33;;;;;;;12.63;5.55;;;;;;;18.83;78.07;101568.84;5032621;28;20032;-86
2022/07/31 07:17:04;;;;;;;11.15;6.22;;;;;;;18.76;78.70;101564.69;5008569;28;20501;-85
2022/07/31 07:19:30;;;;;;;9.15;5.65;;;;;;;18.87;78.91;101573.16;5013729;28;20493;-85
2022/07/31 07:21:57;;;;;;;13.18;6.93;;;;;;;18.86;78.09;101543.69;5042768;28;20506;-84
2022/07/31 07:24:23;;;;;;;15.45;7.20;;;;;;;18.93;78.40;101557.72;5053610;28;20049;-84
2022/07/31 07:27:02;;;;;;;11.63;7.05;;;;;;;19.08;78.33;101565.06;5041995;28;20090;-84
2022/07/31 07:29:29;;;;;;;13.15;6.80;;;;;;;19.19;77.51;101561.88;5022414;28;20026;-85
2022/07/31 07:31:55;;;;;;;13.18;7.72;;;;;;;19.25;77.27;101551.72;5014491;28;20512;-83
2022/07/31 07:34:21;;;;;;;11.48;7.63;;;;;;;19.36;76.57;101566.47;5015136;28;20042;-83
2022/07/31 07:36:47;;;;;;;13.98;7.75;;;;;;;19.41;76.89;101551.88;5026284;28;20033;-83
2022/07/31 07:39:26;;;;;;;11.27;7.80;;;;;;;19.45;76.82;101550.78;5042506;28;20547;-83
2022/07/31 07:41:52;;;;;;;14.07;8.43;;;;;;;19.49;76.63;101538.94;5039482;28;20090;-83
2022/07/31 07:44:18;;;;;;;13.27;8.65;;;;;;;19.66;76.40;101530.09;5017722;28;20468;-84
2022/07/31 07:46:44;;;;;;;14.13;8.65;;;;;;;19.86;75.93;101545.25;5014238;28;20096;-83
2022/07/31 07:49:13;;;;;;;16.90;9.82;;;;;;;19.90;75.16;101538.75;5024845;28;20073;-84
2022/07/31 07:51:58;;;;;;;15.30;10.15;;;;;;;20.00;74.97;101533.78;4984892;28;20115;-84
2022/07/31 07:55:04;;;;;;;16.23;10.13;;;;;;;20.04;74.57;101532.69;4987778;28;20050;-83
2022/07/31 07:58:02;;;;;;;14.77;9.55;;;;;;;20.12;73.77;101529.63;4970505;28;20051;-84
2022/07/31 08:00:47;;;;;;;12.90;8.90;;;;;;;20.28;73.85;101535.97;5004337;28;20037;-84
2022/07/31 08:03:13;;;;;;;13.25;8.27;;;;;;;20.31;74.19;101526.88;5033703;28;20114;-83
2022/07/31 08:05:39;;;;;;;23.08;9.73;;;;;;;20.35;73.68;101539.19;5047309;28;20106;-86
2022/07/31 08:08:05;;;;;;;18.17;9.73;;;;;;;20.45;73.55;101545.84;5016572;28;20473;-83
2022/07/31 08:10:42;;;;;;;16.35;9.23;;;;;;;20.46;72.93;101538.66;5032713;28;20032;-82
2022/07/31 08:13:18;;;;;;;16.17;9.45;;;;;;;20.54;73.30;101547.19;5031188;28;20441;-82
2022/07/31 08:16:03;;;;;;;16.73;9.27;;;;;;;20.52;72.73;101533.78;5020730;28;20104;-84
2022/07/31 08:18:32;;;;;;;14.70;9.27;;;;;;;20.59;73.31;101546.00;5033377;28;20033;-84
2022/07/31 08:20:58;;;;;;;15.25;9.40;;;;;;;20.71;72.44;101535.56;5033232;28;20063;-83
2022/07/31 08:23:23;;;;;;;15.10;9.15;;;;;;;20.84;72.04;101550.09;5021465;28;20101;-84
2022/07/31 08:25:49;;;;;;;15.65;9.63;;;;;;;20.91;72.41;101547.94;5014115;28;20525;-83
2022/07/31 08:28:15;;;;;;;15.40;9.93;;;;;;;20.86;71.56;101531.19;5015663;28;20034;-82
2022/07/31 08:30:41;;;;;;;13.70;10.27;;;;;;;20.86;71.97;101537.44;5016303;28;20037;-82
2022/07/31 08:33:09;;;;;;;14.95;9.60;;;;;;;20.94;72.00;101539.69;5016420;28;20025;-82
2022/07/31 08:35:37;;;;;;;14.27;8.85;;;;;;;20.91;71.92;101543.44;5032615;28;20037;-84
2022/07/31 08:38:04;;;;;;;15.00;9.18;;;;;;;20.86;72.29;101539.25;5016215;28;20084;-83
2022/07/31 08:40:37;;;;;;;14.05;9.52;;;;;;;20.91;72.51;101542.56;5032305;28;20030;-82
2022/07/31 08:43:03;;;;;;;14.02;8.82;;;;;;;20.91;71.79;101547.94;5025732;28;20409;-82
2022/07/31 08:45:30;;;;;;;17.40;9.35;;;;;;;20.85;72.37;101542.91;5026026;28;20108;-82
2022/07/31 08:48:09;;;;;;;14.77;9.68;;;;;;;20.91;72.70;101545.25;5029299;28;20037;-82
2022/07/31 08:50:44;;;;;;;15.57;9.90;;;;;;;20.80;72.60;101533.25;5010004;28;20048;-84
2022/07/31 08:53:28;;;;;;;11.57;8.88;;;;;;;20.82;72.27;101544.81;5046363;28;20048;-83
2022/07/31 08:55:59;;;;;;;15.45;9.32;;;;;;;20.85;72.38;101551.84;5015385;28;20040;-84
2022/07/31 08:58:28;;;;;;;13.95;9.18;;;;;;;20.79;72.15;101547.66;5016251;28;20548;-83
2022/07/31 09:00:54;;;;;;;16.27;8.32;;;;;;;20.73;71.74;101549.81;5033313;28;20037;-82
2022/07/31 09:03:20;;;;;;;12.25;8.35;;;;;;;20.76;72.70;101555.03;5025993;28;20108;-84
2022/07/31 09:06:11;;;;;;;19.05;9.20;;;;;;;20.79;72.77;101557.53;5021989;28;20496;-83
2022/07/31 09:08:37;;;;;;;17.77;8.70;;;;;;;20.85;72.10;101546.47;5053533;28;20171;-82
2022/07/31 09:11:08;;;;;;;14.63;8.90;;;;;;;20.87;72.66;101547.25;5032453;28;20116;-83
2022/07/31 09:13:57;;;;;;;12.80;8.95;;;;;;;20.86;72.36;101526.66;5028005;28;20040;-83
2022/07/31 09:16:44;;;;;;;13.95;8.45;;;;;;;20.90;72.95;101543.53;5039129;28;20033;-84
2022/07/31 09:19:09;;;;;;;14.48;9.35;;;;;;;20.86;72.71;101525.78;5012556;28;20066;-83
2022/07/31 09:21:39;;;;;;;16.08;9.00;;;;;;;20.91;73.04;101532.66;4999166;28;20041;-84
2022/07/31 09:24:06;;;;;;;13.82;9.23;;;;;;;20.87;72.61;101525.72;5015497;28;20143;-83
2022/07/31 09:26:33;;;;;;;13.65;8.77;;;;;;;20.93;73.13;101532.59;5020169;28;20025;-82
2022/07/31 09:29:00;;;;;;;12.75;8.70;;;;;;;21.09;73.16;101533.47;5040414;28;20499;-84
2022/07/31 09:31:34;;;;;;;12.80;8.30;;;;;;;21.25;73.46;101520.91;5024556;28;20105;-83
2022/07/31 09:34:26;;;;;;;17.02;9.18;;;;;;;21.38;74.64;101539.94;5022894;28;20120;-85
2022/07/31 09:37:24;;;;;;;11.63;7.60;;;;;;;21.44;74.08;101533.41;5016714;28;20493;-85
2022/07/31 09:40:08;;;;;;;10.02;7.60;;;;;;;21.48;73.64;101524.16;5031594;28;20095;-84
2022/07/31 09:43:16;;;;;;;12.27;7.60;;;;;;;21.73;72.55;101528.16;4967642;28;20042;-84
2022/07/31 09:45:48;;;;;;;10.43;7.68;;;;;;;21.82;72.62;101533.88;5016837;28;20047;-85
2022/07/31 09:48:14;;;;;;;12.15;7.40;;;;;;;21.85;70.67;101511.25;5031955;28;20084;-85
2022/07/31 09:51:02;;;;;;;11.15;7.63;;;;;;;21.90;71.23;101518.09;5031122;28;20450;-85
2022/07/31 09:53:40;;;;;;;14.70;7.20;;;;;;;21.90;71.54;101512.72;5012059;28;20507;-86
2022/07/31 09:56:32;;;;;;;12.63;7.32;;;;;;;22.01;70.06;101527.41;5015586;28;20029;-84
2022/07/31 09:58:59;;;;;;;10.82;6.85;;;;;;;21.95;70.79;101508.88;5003524;28;20129;-85
2022/07/31 10:01:25;;;;;;;10.73;7.38;;;;;;;22.05;69.61;101518.16;5013253;28;20021;-85
2022/07/31 10:03:54;;;;;;;12.32;6.82;;;;;;;22.12;69.71;101506.91;5009915;28;20030;-83
2022/07/31 10:06:23;;;;;;;14.48;6.85;;;;;;;22.16;70.00;101512.16;5031139;28;20084;-83
2022/07/31 10:08:50;;;;;;;10.55;6.90;;;;;;;22.18;69.48;101515.59;5011765;28;20033;-84
2022/07/31 10:11:39;;;;;;;10.32;6.63;;;;;;;22.26;68.53;101516.06;5014972;28;20105;-83
2022/07/31 10:14:18;;;;;;;13.18;6.45;;;;;;;22.31;69.39;101514.81;5031523;28;20048;-84
2022/07/31 10:16:44;;;;;;;9.05;6.30;;;;;;;22.42;68.81;101518.69;5015211;28;20042;-83
2022/07/31 10:19:36;;;;;;;12.50;6.40;;;;;;;22.65;69.09;101514.56;5020917;28;20069;-84
2022/07/31 10:22:22;;;;;;;16.48;6.22;;;;;;;22.73;67.48;101513.16;5018396;28;20064;-82
2022/07/31 10:24:51;;;;;;;8.23;5.65;;;;;;;22.81;67.38;101504.56;5031391;28;20041;-84
2022/07/31 10:27:18;;;;;;;9.48;5.28;;;;;;;22.92;67.17;101511.97;5031553;28;20029;-84
2022/07/31 10:29:48;;;;;;;13.18;5.25;;;;;;;23.02;67.28;101504.19;5028620;28;20033;-83
2022/07/31 10:32:15;;;;;;;8.38;5.32;;;;;;;23.13;66.68;101504.38;5031215;28;20080;-82
2022/07/31 10:35:02;;;;;;;15.07;4.93;;;;;;;23.17;65.35;101498.69;5031759;28;20091;-83
2022/07/31 10:37:56;;;;;;;10.65;4.93;;;;;;;23.20;66.16;101497.63;5010827;28;20547;-84
2022/07/31 10:41:02;;;;;;;9.25;4.60;;;;;;;23.19;65.70;101498.56;5029268;28;20032;-83
2022/07/31 10:43:37;;;;;;;8.85;4.40;;;;;;;23.18;65.35;101503.13;5031193;28;20040;-83
2022/07/31 10:46:28;;;;;;;8.80;4.85;;;;;;;23.15;65.83;101502.47;5028595;28;20079;-84
2022/07/31 10:49:18;;;;;;;5.90;3.90;;;;;;;23.18;65.48;101500.41;5032319;28;20055;-84
2022/07/31 10:52:33;;;;;;;9.45;4.20;;;;;;;23.07;65.56;101488.56;4976670;28;20043;-84
2022/07/31 10:55:21;;;;;;;8.52;4.55;;;;;;;23.04;65.33;101499.56;5019907;28;20362;-84
2022/07/31 10:58:10;;;;;;;9.82;4.38;;;;;;;23.03;65.41;101495.13;5049010;28;20147;-85
2022/07/31 11:00:52;;;;;;;8.75;4.20;;;;;;;23.00;65.78;101500.72;5041497;28;20048;-83
2022/07/31 11:03:47;;;;;;;8.40;4.28;;;;;;;22.95;66.13;101490.19;5021337;28;20045;-84
2022/07/31 11:06:40;;;;;;;6.95;3.63;;;;;;;22.99;65.86;101493.59;5045635;28;20037;-83
2022/07/31 11:09:35;;;;;;;8.07;4.10;;;;;;;23.06;66.03;101471.47;5030619;28;20029;-84
2022/07/31 11:12:19;;;;;;;4.50;3.47;;;;;;;23.26;65.88;101466.63;5017861;28;20022;-85
2022/07/31 11:15:22;;;;;;;6.10;3.70;;;;;;;23.54;65.13;101462.97;5044992;28;20048;-84
2022/07/31 11:18:17;;;;;;;11.38;4.38;;;;;;;23.57;64.13;101469.03;5034353;28;20116;-83
2022/07/31 11:21:02;;;;;;;9.27;3.90;;;;;;;23.53;64.80;101467.50;5018489;28;20489;-83
2022/07/31 11:23:29;;;;;;;6.35;3.45;;;;;;;23.55;64.73;101475.53;5031846;28;20071;-83
2022/07/31 11:25:59;;;;;;;8.65;3.17;;;;;;;23.58;64.15;101469.91;5018132;28;20041;-84
2022/07/31 11:28:25;;;;;;;10.27;3.53;;;;;;;23.73;61.78;101470.75;5011825;28;20040;-81
2022/07/31 11:31:05;;;;;;;6.47;3.58;;;;;;;23.77;62.42;101456.06;4981707;28;20033;-85
2022/07/31 11:33:41;;;;;;;5.30;3.22;;;;;;;23.80;62.21;101458.56;5026206;28;20029;-83
2022/07/31 11:36:10;;;;;;;7.63;4.22;;;;;;;23.74;61.82;101461.69;5025429;28;20531;-84
2022/07/31 11:38:37;;;;;;;8.18;3.95;;;;;;;23.69;62.14;101464.66;5014925;28;20065;-83
2022/07/31 11:41:04;;;;;;;8.40;3.83;;;;;;;23.67;61.64;101468.44;5040858;28;20557;-84
2022/07/31 11:43:29;;;;;;;8.32;3.90;;;;;;;23.67;62.31;101457.63;5019794;28;20092;-84